Tiempo atmosférico en la estación meteorológica de Berga, Barcelona (690 m.)

Fecha
DESCASC
Temp. máxima en grados centígrados (hora)
DESCASC
Temp. mínima en grados centígrados (hora)
DESCASC
Temp. media en grados centígrados
DESCASC
Racha de viento máxima en m/sg (hora)
DESCASC
Velocidad máxima media en intervalos de 10 minutos(hora)
DESCASC
Precipitaciones diarias en mm
DESCASC
Precipitaciones de 00:00 a 06:00 en mm
DESCASC
Precipitaciones de 06:00 a 12:00 en mm
DESCASC
Precipitaciones de 12:00 a 18:00 en mm
DESCASC
Precipitaciones de 18:00 a 24:00 en mm
DESCASC
17-08-2017 33.2 (16:00) 18 (07:20) 25.6 9.72 (17:50) 6.11 (17:10) 0 0 0 0 0
16-08-2017 31.8 (17:00) 16.8 (07:20) 24.3 8.33 (17:30) 4.72 (18:40) 0 0 0 0 0
15-08-2017 32.2 (15:00) 14.4 (00:00) 23.3 10.28 (15:40) 6.94 (15:40) 1.4 0 0 1.4 0
14-08-2017 31.1 (16:10) 16.7 (05:20) 23.9 10 (15:20) 5.83 (18:40) 0 0 0 0 0
13-08-2017 29.5 (15:50) 14.8 (00:00) 22.2 9.17 (16:50) 5.28 (18:10) 0 0 0 0 0
12-08-2017 27.8 (16:00) 13.4 (00:00) 20.6 8.33 (13:40) 4.72 (18:40) 0 0 0 0 0
11-08-2017 24.8 (15:40) 10.9 (00:00) 17.8 9.72 (14:40) 6.39 (16:30) 0 0 0 0 0
10-08-2017 24 (18:50) 9.3 (00:00) 16.7 11.39 (19:00) 8.33 (19:00) 0 0 0 0 0
09-08-2017 22 (14:10) 12.8 (00:00) 17.4 8.89 (14:40) 5.83 (14:40) 5.4 0 0 0 5.4
08-08-2017 28.4 (15:50) 18.9 (00:00) 23.6 14.17 (16:50) 8.33 (16:50) 0.2 0.2 0 0 0
07-08-2017 29.1 (16:30) 19.9 (00:00) 24.5 8.33 (17:00) 5.28 (17:00) 0 0 0 0 0
06-08-2017 30.3 (18:30) 20.6 (00:00) 25.4 9.44 (16:30) 5.83 (14:30) 0.2 0 0.2 0 0
05-08-2017 35.3 (15:40) 21.7 (00:00) 28.5 10.28 (17:20) 5.83 (14:50) 0 0 0 0 0
04-08-2017 36 (16:50) 21.5 (00:00) 28.8 11.11 (17:30) 7.22 (15:50) 0 0 0 0 0
03-08-2017 36.5 (15:20) 21.9 (00:00) 29.2 11.39 (17:00) 6.39 (16:50) 0 0 0 0 0
02-08-2017 35.7 (16:20) 19 (00:00) 27.4 11.94 (14:50) 7.78 (14:50) 0 0 0 0 0
01-08-2017 30.6 (12:00) 20.5 (00:00) 25.6 11.67 (15:40) 6.67 (15:50) 1 0 0 1 0
31-07-2017 35.4 (15:30) 21.7 (00:00) 28.6 11.39 (14:10) 5.83 (13:30) 0 0 0 0 0
30-07-2017 34.1 (15:30) 18.7 (00:00) 26.4 9.17 (15:40) 5.28 (19:30) 0 0 0 0 0
29-07-2017 32.7 (15:50) 18.2 (00:00) 25.5 11.11 (17:00) 6.39 (17:00) 0 0 0 0 0
28-07-2017 32.1 (16:00) 19 (00:00) 25.5 9.72 (16:50) 6.11 (18:50) 0 0 0 0 0
27-07-2017 32.6 (17:10) 15.3 (00:00) 23.9 11.39 (18:00) 6.67 (18:00) 0 0 0 0 0
26-07-2017 27.8 (17:20) 13.7 (00:00) 20.7 9.17 (18:10) 6.11 (18:10) 0 0 0 0 0
25-07-2017 27.3 (17:40) 13.9 (00:00) 20.6 10 (17:30) 6.67 (17:20) 0 0 0 0 0
24-07-2017 29.8 (17:20) 15.5 (00:00) 22.6 12.5 (18:30) 8.61 (18:40) 0 0 0 0 0
23-07-2017 29.9 (16:10) 18.8 (00:00) 24.3 10.83 (19:10) 6.67 (19:10) 0 0 0 0 0
22-07-2017 29.1 (14:30) 16.4 (00:00) 22.8 9.17 (19:10) 5.56 (15:40) 0 0 0 0 0
21-07-2017 24.6 (16:30) 16.6 (00:00) 20.6 8.61 (12:10) 5.28 (11:40) 5.2 0 5.2 0 0
20-07-2017 31 (16:10) 18.3 (00:00) 24.6 10.56 (20:10) 6.39 (17:20) 10 0 0 0 10
19-07-2017 32.8 (14:50) 19 (00:00) 25.9 10.56 (16:20) 6.39 (02:20) 0 0 0 0 0

Gráficas

Temp. máximas Temp. mínimas Temp. medias Precipitaciones Rachas de viento máximas Velocidades máximas media en intervalos de 10 minutos

Datos horarios

Fecha y hora oficial Temperatura (ºC) Velocidad del viento (km/h) Dirección del viento Racha (km/h) Dirección de racha Precipitación (mm) Presión (hPa) Tendencia (hPa) Humedad (%)
2017-08-17 23:00:00 23.7 3 Sudoeste 10 Sudoeste 0 -- -- 66
2017-08-17 22:00:00 24.4 8 Sudoeste 14 Sudoeste 0 -- -- 64
2017-08-17 21:00:00 25.8 10 Oeste 18 Oeste 0 -- -- 58
2017-08-17 20:00:00 28.2 13 Sudoeste 24 Sudoeste 0 -- -- 50
2017-08-17 19:00:00 30.2 14 Sudoeste 32 Sudoeste 0 -- -- 45
2017-08-17 18:00:00 32.1 19 Sudoeste 35 Sudoeste 0 -- -- 38
2017-08-17 17:00:00 33 17 Sudoeste 32 Sudoeste 0 -- -- 29
2017-08-17 16:00:00 33.2 16 Sudoeste 33 Sudoeste 0 -- -- 30
2017-08-17 15:00:00 32.9 18 Sudoeste 33 Sudoeste 0 -- -- 33
2017-08-17 14:00:00 31.6 13 Sudoeste 24 Sudoeste 0 -- -- 41
2017-08-17 13:00:00 29.9 10 Sur 24 Sudoeste 0 -- -- 47
2017-08-17 12:00:00 28.4 7 Noroeste 14 Oeste 0 -- -- 51
2017-08-17 11:00:00 26.1 4 Sudoeste 10 Sudoeste 0 -- -- 58
2017-08-17 10:00:00 23.6 5 Oeste 11 Oeste 0 -- -- 66
2017-08-17 09:00:00 20.5 4 Este 12 Este 0 -- -- 76
2017-08-17 08:00:00 18.1 5 Este 11 Nordeste 0 -- -- 85
2017-08-17 07:00:00 18.1 7 Este 12 Este 0 -- -- 84
2017-08-17 06:00:00 18.4 6 Este 10 Este 0 -- -- 84
2017-08-17 05:00:00 19 5 Este 12 Este 0 -- -- 82
2017-08-17 04:00:00 19.4 6 Este 12 Este 0 -- -- 80
2017-08-17 03:00:00 19.8 6 Este 10 Este 0 -- -- 80
2017-08-17 02:00:00 20.4 5 Este 8 Este 0 -- -- 77
2017-08-17 01:00:00 21.6 2 Sudeste 6 Sur 0 -- -- 72
2017-08-17 00:00:00 22.4 2 Oeste 5 Oeste 0 -- -- 69
2017-08-16 23:00:00 23.2 3 Sudoeste 13 Sudoeste 0 -- -- 68
2017-08-16 22:00:00 24.7 9 Sudoeste 17 Sudoeste 0 -- -- 63
2017-08-16 21:00:00 26 7 Sudoeste 21 Sudoeste 0 -- -- 59
2017-08-16 20:00:00 28.1 11 Sudoeste 22 Sudoeste 0 -- -- 53
2017-08-16 19:00:00 30.2 14 Sudoeste 28 Sudoeste 0 -- -- 46
2017-08-16 18:00:00 31 12 Sudoeste 30 Sudoeste 0 -- -- 42
2017-08-16 17:00:00 31.8 8 Sur 28 Sudoeste 0 -- -- 40
2017-08-16 16:00:00 30.6 9 Sur 28 Sudoeste 0 -- -- 45
2017-08-16 15:00:00 31.2 10 Sudoeste 30 Sudoeste 0 -- -- 44
2017-08-16 14:00:00 29.5 13 Sudoeste 26 Sudoeste 0 -- -- 45
2017-08-16 13:00:00 27.5 7 Sudoeste 16 Sudoeste 0 -- -- 52
2017-08-16 12:00:00 26.2 7 Sudoeste 16 Sudoeste 0 -- -- 50
2017-08-16 11:00:00 25.1 5 Sudoeste 13 Sudoeste 0 -- -- 49
2017-08-16 10:00:00 23.4 3 Este 10 Este 0 -- -- 53
2017-08-16 09:00:00 18.9 7 Este 15 Este 0 -- -- 65
2017-08-16 08:00:00 17.3 7 Este 12 Este 0 -- -- 72
2017-08-16 07:00:00 16.9 8 Este 11 Este 0 -- -- 73
2017-08-16 06:00:00 17.7 7 Este 12 Este 0 -- -- 70
2017-08-16 05:00:00 18.2 8 Este 16 Este 0 -- -- 68
2017-08-16 04:00:00 18.4 8 Este 13 Este 0 -- -- 70
2017-08-16 03:00:00 18.5 8 Este 12 Este 0 -- -- 72
2017-08-16 02:00:00 19.7 4 Nordeste 14 Este 0 -- -- 70
2017-08-16 01:00:00 20.2 6 Este 13 Este 0 -- -- 70
2017-08-16 00:00:00 20.4 4 Este 16 Este 0 -- -- 74
2017-08-15 23:00:00 20.8 4 Este 10 Este 0 -- -- 73
2017-08-15 22:00:00 21.7 3 Este 12 Nordeste 0 -- -- 70
2017-08-15 21:00:00 22.8 5 Este 15 Nordeste 0 -- -- 66
2017-08-15 20:00:00 24.3 3 Sudeste 16 Este 0 -- -- 61
2017-08-15 19:00:00 25.7 6 Este 13 Este 0 -- -- 52
2017-08-15 18:00:00 27.2 4 Nordeste 10 Oeste 0 -- -- 45
2017-08-15 17:00:00 25.8 5 Este 10 Sudoeste 0.2 -- -- 51
2017-08-15 16:00:00 26.9 9 Sudoeste 37 Oeste 1.2 -- -- 48
2017-08-15 15:00:00 32.2 10 Sudoeste 26 Sudoeste 0 -- -- 23
2017-08-15 14:00:00 30.9 9 Sudoeste 26 Sudoeste 0 -- -- 23
2017-08-15 13:00:00 30.1 8 Sudoeste 21 Sudoeste 0 -- -- 29
2017-08-15 12:00:00 28.2 8 Oeste 16 Oeste 0 -- -- 28
2017-08-15 11:00:00 26 7 Oeste 14 Oeste 0 -- -- 35
2017-08-15 10:00:00 23.3 5 Sudoeste 10 Nordeste 0 -- -- 44
2017-08-15 09:00:00 18.5 4 Este 14 Este 0 -- -- 55
2017-08-15 08:00:00 16.2 8 Este 16 Este 0 -- -- 61
2017-08-15 07:00:00 14.8 11 Este 18 Este 0 -- -- 70
2017-08-15 06:00:00 15 8 Este 11 Este 0 -- -- 73
2017-08-15 05:00:00 16.6 5 Nordeste 14 Este 0 -- -- 65
2017-08-15 04:00:00 16.9 7 Este 15 Este 0 -- -- 67
2017-08-15 03:00:00 17.3 8 Este 15 Este 0 -- -- 66
2017-08-15 02:00:00 17.9 8 Este 12 Este 0 -- -- 65
2017-08-15 01:00:00 18.9 5 Nordeste 9 Este 0 -- -- 61
2017-08-15 00:00:00 20.6 2 Nordeste 7 Nordeste 0 -- -- 55
2017-08-14 23:00:00 21.3 5 Este 12 Nordeste 0 -- -- 53
2017-08-14 22:00:00 22.3 3 Sudoeste 9 Oeste 0 -- -- 49
2017-08-14 21:00:00 23.7 6 Oeste 19 Sudoeste 0 -- -- 47
2017-08-14 20:00:00 26.4 13 Sudoeste 28 Sudoeste 0 -- -- 40
2017-08-14 19:00:00 28.7 18 Sudoeste 31 Sudoeste 0 -- -- 34
2017-08-14 18:00:00 30.2 15 Sudoeste 35 Sudoeste 0 -- -- 32
2017-08-14 17:00:00 30.8 15 Sudoeste 35 Sudoeste 0 -- -- 32
2017-08-14 16:00:00 30.8 13 Sudoeste 36 Oeste 0 -- -- 33
2017-08-14 15:00:00 30.9 12 Sudoeste 26 Sudoeste 0 -- -- 31
2017-08-14 14:00:00 30.2 14 Sudoeste 25 Sudoeste 0 -- -- 31
2017-08-14 13:00:00 28.9 10 Sudoeste 21 Sudoeste 0 -- -- 31
2017-08-14 12:00:00 26.8 11 Sudoeste 20 Sudoeste 0 -- -- 47
2017-08-14 11:00:00 25.2 10 Sudoeste 17 Sudoeste 0 -- -- 57
2017-08-14 10:00:00 23.1 0 Calma 8 Este 0 -- -- 62
2017-08-14 09:00:00 19 4 Nordeste 9 Este 0 -- -- 74
2017-08-14 08:00:00 17.3 5 Este 11 Nordeste 0 -- -- 80
2017-08-14 07:00:00 16.7 7 Este 13 Este 0 -- -- 82
2017-08-14 06:00:00 16.9 7 Este 10 Este 0 -- -- 82
2017-08-14 05:00:00 17 6 Este 8 Este 0 -- -- 82
2017-08-14 04:00:00 18.3 4 Este 6 Este 0 -- -- 76
2017-08-14 03:00:00 18.6 3 Nordeste 10 Nordeste 0 -- -- 75
2017-08-14 02:00:00 19 5 Nordeste 12 Este 0 -- -- 73
2017-08-14 01:00:00 19.2 8 Este 12 Este 0 -- -- 73
2017-08-14 00:00:00 20.2 3 Este 5 Este 0 -- -- 69
2017-08-13 23:00:00 21.1 2 Sudoeste 10 Oeste 0 -- -- 65
2017-08-13 22:00:00 21.7 7 Oeste 12 Sudoeste 0 -- -- 64
2017-08-13 21:00:00 23.1 8 Oeste 22 Oeste 0 -- -- 58
2017-08-13 20:00:00 25.3 15 Sudoeste 27 Sudoeste 0 -- -- 51
2017-08-13 19:00:00 26.8 17 Sudoeste 32 Sudoeste 0 -- -- 48
2017-08-13 18:00:00 27.2 14 Sudoeste 30 Sur 0 -- -- 48
2017-08-13 17:00:00 28.7 16 Sudoeste 33 Sudoeste 0 -- -- 42
2017-08-13 16:00:00 29.3 13 Sudoeste 30 Sur 0 -- -- 36
2017-08-13 15:00:00 28.9 13 Sudoeste 26 Sudoeste 0 -- -- 36
2017-08-13 14:00:00 28.3 12 Sudoeste 26 Sudoeste 0 -- -- 36
2017-08-13 13:00:00 27 8 Sur 19 Sudoeste 0 -- -- 39
2017-08-13 12:00:00 25.5 9 Sudoeste 16 Sudoeste 0 -- -- 45
2017-08-13 11:00:00 24.2 7 Oeste 13 Oeste 0 -- -- 49
2017-08-13 10:00:00 22.1 5 Sudoeste 11 Este 0 -- -- 55
2017-08-13 09:00:00 18.2 8 Este 15 Este 0 -- -- 64
2017-08-13 08:00:00 15.7 6 Este 11 Este 0 -- -- 74
2017-08-13 07:00:00 14.9 5 Este 15 Este 0 -- -- 77
2017-08-13 06:00:00 15.3 7 Este 14 Nordeste 0 -- -- 76
2017-08-13 05:00:00 15.8 6 Este 11 Este 0 -- -- 74
2017-08-13 04:00:00 16.4 3 Nordeste 14 Nordeste 0 -- -- 73
2017-08-13 03:00:00 16.5 8 Nordeste 13 Nordeste 0 -- -- 73
2017-08-13 02:00:00 16.7 5 Este 9 Este 0 -- -- 73
2017-08-13 01:00:00 18 2 Sur 5 Sur 0 -- -- 68
2017-08-13 00:00:00 18.4 0 Calma 6 Este 0 -- -- 65
2017-08-12 23:00:00 19.4 3 Noroeste 10 Sudoeste 0 -- -- 62
2017-08-12 22:00:00 20.3 5 Oeste 9 Sudoeste 0 -- -- 57
2017-08-12 21:00:00 22.1 8 Sudoeste 18 Sudoeste 0 -- -- 50
2017-08-12 20:00:00 24.4 12 Sudoeste 28 Sudoeste 0 -- -- 44
2017-08-12 19:00:00 25.9 13 Sudoeste 30 Sudoeste 0 -- -- 40
2017-08-12 18:00:00 27.1 15 Sudoeste 28 Sudoeste 0 -- -- 38
2017-08-12 17:00:00 27.5 10 Sudoeste 27 Sudoeste 0 -- -- 38
2017-08-12 16:00:00 27.8 13 Sudoeste 27 Sudoeste 0 -- -- 37
2017-08-12 15:00:00 26.8 11 Sudoeste 28 Oeste 0 -- -- 39
2017-08-12 14:00:00 25.4 15 Oeste 30 Sudoeste 0 -- -- 42
2017-08-12 13:00:00 24.4 10 Sudoeste 27 Sudoeste 0 -- -- 45
2017-08-12 12:00:00 23.1 15 Sudoeste 23 Oeste 0 -- -- 51
2017-08-12 11:00:00 21 6 Sur 14 Sudeste 0 -- -- 59
2017-08-12 10:00:00 19.1 6 Sur 12 Sudoeste 0 -- -- 64
2017-08-12 09:00:00 15.7 6 Este 17 Este 0 -- -- 70
2017-08-12 08:00:00 14.1 4 Este 16 Sudeste 0 -- -- 78
2017-08-12 07:00:00 13.5 5 Este 9 Este 0 -- -- 83
2017-08-12 06:00:00 14.2 4 Nordeste 9 Este 0 -- -- 84
2017-08-12 05:00:00 15.6 3 Nordeste 4 Nordeste 0 -- -- 87
2017-08-12 04:00:00 15.8 3 Sudoeste 7 Sudoeste 0 -- -- 86
2017-08-12 03:00:00 15.9 5 Sudoeste 9 Sudoeste 0 -- -- 86
2017-08-12 02:00:00 16.2 5 Sudoeste 13 Sudoeste 0 -- -- 85
2017-08-12 01:00:00 16.5 6 Sudoeste 10 Sudoeste 0 -- -- 82
2017-08-12 00:00:00 16.9 5 Sudoeste 17 Sudoeste 0 -- -- 80
2017-08-11 23:00:00 17.5 5 Sudoeste 13 Sudoeste 0 -- -- 77
2017-08-11 22:00:00 17.9 8 Sudoeste 16 Sudoeste 0 -- -- 74
2017-08-11 21:00:00 19.1 8 Sudoeste 19 Sur 0 -- -- 69
2017-08-11 20:00:00 20.6 12 Sudoeste 32 Sudoeste 0 -- -- 62
2017-08-11 19:00:00 22.3 16 Oeste 26 Sudoeste 0 -- -- 39
2017-08-11 18:00:00 21.6 17 Oeste 31 Oeste 0 -- -- 40
2017-08-11 17:00:00 22.3 21 Oeste 33 Oeste 0 -- -- 38
2017-08-11 16:00:00 24.2 19 Oeste 32 Oeste 0 -- -- 34
2017-08-11 15:00:00 24.6 17 Sudoeste 35 Sudoeste 0 -- -- 31
2017-08-11 14:00:00 22.2 9 Oeste 18 Sudoeste 0 -- -- 37
2017-08-11 13:00:00 20.1 8 Oeste 17 Sudoeste 0 -- -- 48
2017-08-11 12:00:00 18.6 8 Sudoeste 17 Sur 0 -- -- 60
2017-08-11 11:00:00 16.8 7 Sudoeste 15 Sudoeste 0 -- -- 64
2017-08-11 10:00:00 15.6 3 Sudoeste 11 Oeste 0 -- -- 70
2017-08-11 09:00:00 12.7 4 Sudoeste 10 Sudoeste 0 -- -- 82
2017-08-11 08:00:00 11.2 4 Este 8 Este 0 -- -- 88
2017-08-11 07:00:00 11.1 3 Oeste 8 Este 0 -- -- 87
2017-08-11 06:00:00 12.1 4 Sur 9 Este 0 -- -- 85
2017-08-11 05:00:00 12.3 5 Este 13 Este 0 -- -- 80
2017-08-11 04:00:00 13.3 6 Este 10 Este 0 -- -- 80
2017-08-11 03:00:00 13.6 4 Nordeste 15 Este 0 -- -- 76
2017-08-11 02:00:00 14.4 7 Este 15 Nordeste 0 -- -- 78
2017-08-11 01:00:00 15.3 6 Este 10 Este 0 -- -- 75
2017-08-11 00:00:00 16 3 Este 6 Nordeste 0 -- -- 74
2017-08-10 23:00:00 16.7 2 Este 9 Nordeste 0 -- -- 70
2017-08-10 22:00:00 17.6 4 Este 17 Sudeste 0 -- -- 66
2017-08-10 21:00:00 19.1 7 Este 33 Este 0 -- -- 61
2017-08-10 20:00:00 21.6 15 Oeste 38 Oeste 0 -- -- 43
2017-08-10 19:00:00 23.1 30 Oeste 41 Oeste 0 -- -- 39
2017-08-10 18:00:00 23.3 12 Nordeste 24 Este 0 -- -- 38
2017-08-10 17:00:00 23.2 9 Sudoeste 20 Sudoeste 0 -- -- 39
2017-08-10 16:00:00 22.5 6 Sudoeste 24 Oeste 0 -- -- 41
2017-08-10 15:00:00 21.9 12 Sudoeste 26 Sudoeste 0 -- -- 42
2017-08-10 14:00:00 22.3 13 Oeste 26 Sudoeste 0 -- -- 49
2017-08-10 13:00:00 20.2 11 Sudoeste 23 Sudoeste 0 -- -- 56
2017-08-10 12:00:00 18.4 12 Sudoeste 20 Sudoeste 0 -- -- 63
2017-08-10 11:00:00 16.9 8 Sudoeste 13 Sudoeste 0 -- -- 69
2017-08-10 10:00:00 14.8 5 Sur 10 Sudoeste 0 -- -- 73
2017-08-10 09:00:00 10.6 5 Este 14 Este 0 -- -- 82
2017-08-10 08:00:00 9.4 6 Este 15 Este 0 -- -- 87
2017-08-10 07:00:00 9.3 6 Este 16 Este 0 -- -- 86
2017-08-10 06:00:00 9.9 4 Este 13 Nordeste 0 -- -- 86
2017-08-10 05:00:00 10.8 5 Este 11 Este 0 -- -- 88
2017-08-10 04:00:00 11.7 4 Este 13 Este 0 -- -- 87
2017-08-10 03:00:00 12.2 7 Este 12 Este 0 -- -- 88
2017-08-10 02:00:00 13.8 4 Este 12 Sur 0 -- -- 92
2017-08-10 01:00:00 14.3 4 Norte 12 Nordeste 0 -- -- 92
2017-08-10 00:00:00 14.6 4 Sudoeste 8 Sudoeste 0.2 -- -- 91
2017-08-09 23:00:00 15 0 Calma 10 Sudeste 0 -- -- 90
2017-08-09 22:00:00 15.3 4 Este 8 Este 1.2 -- -- 92
2017-08-09 21:00:00 15.6 2 Nordeste 11 Nordeste 1.6 -- -- 89
2017-08-09 20:00:00 15.9 6 Este 27 Nordeste 2.4 -- -- 86
2017-08-09 19:00:00 18.3 15 Nordeste 30 Norte 0 -- -- 67
2017-08-09 18:00:00 19.8 7 Este 15 Este 0 -- -- 58
2017-08-09 17:00:00 19.3 9 Nordeste 30 Nordeste 0 -- -- 59
2017-08-09 16:00:00 19.9 14 Nordeste 30 Nordeste 0 -- -- 54
2017-08-09 15:00:00 21.2 12 Noroeste 32 Oeste 0 -- -- 43
2017-08-09 14:00:00 21.7 17 Oeste 28 Sudoeste 0 -- -- 43
2017-08-09 13:00:00 21.1 10 Sudoeste 26 Sudoeste 0 -- -- 45
2017-08-09 12:00:00 20.7 12 Sudoeste 22 Oeste 0 -- -- 48
2017-08-09 11:00:00 20.2 6 Sudoeste 15 Sur 0 -- -- 53
2017-08-09 10:00:00 18.7 3 Oeste 11 Sudoeste 0 -- -- 57
2017-08-09 09:00:00 15.5 5 Sudeste 10 Este 0 -- -- 67
2017-08-09 08:00:00 13 7 Este 12 Nordeste 0 -- -- 77
2017-08-09 07:00:00 12.8 4 Nordeste 13 Este 0 -- -- 75
2017-08-09 06:00:00 13.5 5 Nordeste 14 Nordeste 0 -- -- 72
2017-08-09 05:00:00 14.4 9 Este 17 Este 0 -- -- 68
2017-08-09 04:00:00 14.6 5 Este 10 Este 0 -- -- 71
2017-08-09 03:00:00 15.6 3 Este 9 Este 0 -- -- 71
2017-08-09 02:00:00 16.9 4 Este 6 Este 0 -- -- 62
2017-08-09 01:00:00 17.7 2 Noroeste 9 Sur 0 -- -- 69
2017-08-09 00:00:00 18.9 8 Sur 17 Sur 0 -- -- 55
2017-08-08 23:00:00 19.4 7 Sudoeste 20 Sudoeste 0 -- -- 49
2017-08-08 22:00:00 20.7 13 Sudoeste 23 Sudoeste 0 -- -- 38
2017-08-08 21:00:00 22.9 15 Sudoeste 32 Sudoeste 0 -- -- 29
2017-08-08 20:00:00 25 23 Oeste 38 Sudoeste 0 -- -- 35
2017-08-08 19:00:00 26.2 24 Oeste 40 Oeste 0 -- -- 29
2017-08-08 18:00:00 27.2 27 Oeste 43 Oeste 0 -- -- 35
2017-08-08 17:00:00 27.3 30 Sudoeste 51 Sudoeste 0 -- -- 39
2017-08-08 16:00:00 28.1 23 Oeste 41 Oeste 0 -- -- 44
2017-08-08 15:00:00 28.1 26 Sudoeste 43 Sudoeste 0 -- -- 45
2017-08-08 14:00:00 27.9 27 Oeste 42 Sudoeste 0 -- -- 50
2017-08-08 13:00:00 28.1 22 Oeste 35 Oeste 0 -- -- 49
2017-08-08 12:00:00 27.4 16 Sudoeste 24 Sudoeste 0 -- -- 54
2017-08-08 11:00:00 26.3 12 Sudoeste 21 Sudoeste 0 -- -- 63
2017-08-08 10:00:00 23.8 7 Oeste 14 Oeste 0 -- -- 74
2017-08-08 09:00:00 21.2 4 Este 9 Este 0 -- -- 76
2017-08-08 08:00:00 20 5 Este 9 Este 0 -- -- 80
2017-08-08 07:00:00 19.6 5 Este 8 Este 0 -- -- 83
2017-08-08 06:00:00 19.8 5 Este 13 Este 0.2 -- -- 82
2017-08-08 05:00:00 19.9 7 Este 15 Este 0 -- -- 76
2017-08-08 04:00:00 19.6 8 Este 14 Este 0 -- -- 77
2017-08-08 03:00:00 19.5 5 Nordeste 9 Nordeste 0 -- -- 78
2017-08-08 02:00:00 20.3 3 Este 11 Este 0 -- -- 75
2017-08-08 01:00:00 21.1 3 Nordeste 9 Oeste 0 -- -- 73
2017-08-08 00:00:00 21.4 6 Sudoeste 12 Sudoeste 0 -- -- 70
2017-08-07 23:00:00 22.5 0 Calma 5 Este 0 -- -- 63
2017-08-07 22:00:00 23.3 2 Sur 9 Sur 0 -- -- 60
2017-08-07 21:00:00 24.6 8 Sudoeste 23 Sudoeste 0 -- -- 58
2017-08-07 20:00:00 26 16 Sudoeste 27 Sudoeste 0 -- -- 58
2017-08-07 19:00:00 27.2 10 Sudoeste 29 Oeste 0 -- -- 58
2017-08-07 18:00:00 28 14 Sudoeste 27 Sudoeste 0 -- -- 57
2017-08-07 17:00:00 29.1 19 Sudoeste 30 Sudoeste 0 -- -- 53
2017-08-07 16:00:00 28.3 13 Oeste 23 Sudoeste 0 -- -- 50
2017-08-07 15:00:00 27.5 11 Noroeste 26 Oeste 0 -- -- 56
2017-08-07 14:00:00 26.7 17 Oeste 28 Sudoeste 0 -- -- 56
2017-08-07 13:00:00 25.6 7 Sudoeste 17 Sudoeste 0 -- -- 59
2017-08-07 12:00:00 24.5 7 Sur 18 Sudoeste 0 -- -- 62
2017-08-07 11:00:00 24 12 Sudoeste 23 Sudoeste 0 -- -- 64
2017-08-07 10:00:00 24.1 10 Sudoeste 22 Sudoeste 0 -- -- 65
2017-08-07 09:00:00 21.4 4 Sudoeste 8 Sudoeste 0 -- -- 84
2017-08-07 08:00:00 20.1 2 Sudoeste 6 Sudoeste 0 -- -- 92
2017-08-07 07:00:00 20 3 Este 6 Sudeste 0 -- -- 93
2017-08-07 06:00:00 20.1 2 Noroeste 5 Oeste 0 -- -- 89
2017-08-07 05:00:00 20.3 4 Sudoeste 5 Sudoeste 0 -- -- 87
2017-08-07 04:00:00 19.9 3 Sudoeste 7 Sudoeste 0 -- -- 86
2017-08-07 03:00:00 20.7 3 Este 8 Este 0 -- -- 82
2017-08-07 02:00:00 21.3 4 Sudoeste 7 Sudoeste 0 -- -- 79
2017-08-07 01:00:00 22.2 3 Sudoeste 5 Sudoeste 0 -- -- 75
2017-08-07 00:00:00 22.7 4 Sudoeste 11 Sudoeste 0 -- -- 72
2017-08-06 23:00:00 23.4 6 Oeste 11 Sudoeste 0 -- -- 75
2017-08-06 22:00:00 24 4 Sudoeste 12 Sudoeste 0 -- -- 73
2017-08-06 21:00:00 25.6 5 Sur 14 Sur 0 -- -- 66
2017-08-06 20:00:00 27.5 9 Sudoeste 28 Sudoeste 0 -- -- 59
2017-08-06 19:00:00 29.1 12 Oeste 27 Oeste 0 -- -- 44
2017-08-06 18:00:00 30.2 16 Sudoeste 29 Oeste 0 -- -- 43
2017-08-06 17:00:00 29.6 15 Oeste 34 Oeste 0 -- -- 45
2017-08-06 16:00:00 29.2 18 Oeste 30 Oeste 0 -- -- 46
2017-08-06 15:00:00 28.1 20 Oeste 30 Oeste 0 -- -- 49
2017-08-06 14:00:00 27.5 15 Oeste 27 Oeste 0 -- -- 52
2017-08-06 13:00:00 26.8 10 Oeste 23 Oeste 0 -- -- 58
2017-08-06 12:00:00 27.8 9 Sur 20 Sudoeste 0 -- -- 57
2017-08-06 11:00:00 25.7 6 Sur 14 Sudoeste 0 -- -- 68
2017-08-06 10:00:00 23.5 5 Este 12 Este 0 -- -- 77
2017-08-06 09:00:00 21.8 5 Este 11 Este 0 -- -- 85
2017-08-06 08:00:00 20.7 5 Este 12 Este 0 -- -- 88
2017-08-06 07:00:00 20.8 7 Este 11 Nordeste 0.2 -- -- 85
2017-08-06 06:00:00 21.6 3 Este 8 Este 0 -- -- 80
2017-08-06 05:00:00 21.7 3 Este 10 Este 0 -- -- 77
2017-08-06 04:00:00 22.1 4 Este 8 Este 0 -- -- 75
2017-08-06 03:00:00 22.7 3 Este 10 Nordeste 0 -- -- 73
2017-08-06 02:00:00 23.1 5 Este 7 Este 0 -- -- 71
2017-08-06 01:00:00 24.1 3 Sudoeste 11 Nordeste 0 -- -- 66
2017-08-06 00:00:00 25 3 Nordeste 8 Este 0 -- -- 63
2017-08-05 23:00:00 26.1 3 Sudoeste 8 Sudoeste 0 -- -- 58
2017-08-05 22:00:00 27.5 3 Sudoeste 9 Sudoeste 0 -- -- 51
2017-08-05 21:00:00 28.4 5 Oeste 17 Sudoeste 0 -- -- 50
2017-08-05 20:00:00 29.8 7 Sudoeste 20 Sudoeste 0 -- -- 47
2017-08-05 19:00:00 30.9 13 Sudoeste 30 Sudoeste 0 -- -- 45
2017-08-05 18:00:00 33.6 19 Sudoeste 37 Sudoeste 0 -- -- 38
2017-08-05 17:00:00 34.4 16 Sudoeste 34 Sudoeste 0 -- -- 36
2017-08-05 16:00:00 34.6 15 Sudoeste 32 Oeste 0 -- -- 34
2017-08-05 15:00:00 35 20 Sudoeste 33 Sudoeste 0 -- -- 33
2017-08-05 14:00:00 33.8 12 Sudoeste 27 Sudoeste 0 -- -- 34
2017-08-05 13:00:00 33.1 13 Sudoeste 28 Oeste 0 -- -- 36
2017-08-05 12:00:00 32.1 9 Sudoeste 21 Sudoeste 0 -- -- 38
2017-08-05 11:00:00 30.2 6 Oeste 15 Sudoeste 0 -- -- 47
2017-08-05 10:00:00 28.4 6 Sudoeste 10 Sudoeste 0 -- -- 51
2017-08-05 09:00:00 24.5 5 Este 14 Este 0 -- -- 63
2017-08-05 08:00:00 22.4 6 Este 15 Este 0 -- -- 69
2017-08-05 07:00:00 22 7 Este 17 Este 0 -- -- 70
2017-08-05 06:00:00 22.3 8 Este 14 Este 0 -- -- 69
2017-08-05 05:00:00 22.7 9 Este 14 Este 0 -- -- 68
2017-08-05 04:00:00 23 7 Este 13 Este 0 -- -- 67
2017-08-05 03:00:00 23.5 6 Este 12 Este 0 -- -- 66
2017-08-05 02:00:00 24.2 5 Este 9 Este 0 -- -- 64
2017-08-05 01:00:00 25.3 4 Este 8 Este 0 -- -- 61
2017-08-05 00:00:00 26.6 5 Este 8 Este 0 -- -- 57
2017-08-04 23:00:00 28.1 3 Sur 6 Este 0 -- -- 52
2017-08-04 22:00:00 29.5 3 Sur 7 Este 0 -- -- 48
2017-08-04 21:00:00 31.2 5 Sur 17 Sudeste 0 -- -- 44
2017-08-04 20:00:00 33.9 8 Este 25 Oeste 0 -- -- 37
2017-08-04 19:00:00 34.8 17 Oeste 33 Sudoeste 0 -- -- 30
2017-08-04 18:00:00 35.5 20 Sudoeste 40 Sudoeste 0 -- -- 29
2017-08-04 17:00:00 35.9 21 Sudoeste 34 Sudoeste 0 -- -- 29
2017-08-04 16:00:00 35.8 21 Oeste 36 Oeste 0 -- -- 29
2017-08-04 15:00:00 35.4 21 Sudoeste 40 Sudoeste 0 -- -- 30
2017-08-04 14:00:00 35 17 Sudoeste 35 Sudoeste 0 -- -- 32
2017-08-04 13:00:00 34 14 Sudoeste 31 Sudoeste 0 -- -- 32
2017-08-04 12:00:00 32.2 8 Sudoeste 17 Sudoeste 0 -- -- 37
2017-08-04 11:00:00 29.7 8 Oeste 14 Sudoeste 0 -- -- 42
2017-08-04 10:00:00 27.6 5 Sudoeste 8 Oeste 0 -- -- 47
2017-08-04 09:00:00 23.6 4 Este 13 Este 0 -- -- 59
2017-08-04 08:00:00 21.8 8 Este 15 Nordeste 0 -- -- 62
2017-08-04 07:00:00 21.6 9 Este 15 Este 0 -- -- 63
2017-08-04 06:00:00 22.3 6 Este 16 Este 0 -- -- 61
2017-08-04 05:00:00 23.1 10 Este 17 Nordeste 0 -- -- 59
2017-08-04 04:00:00 24.3 11 Nordeste 21 Sudeste -- -- -- 55
2017-08-04 03:00:00 24.4 11 Este 21 Nordeste 0 -- -- 56
2017-08-04 02:00:00 24.9 10 Nordeste 17 Nordeste 0 -- -- 54
2017-08-04 01:00:00 25.4 9 Nordeste 19 Este 0 -- -- 53
2017-08-04 00:00:00 25.8 9 Nordeste 18 Nordeste 0 -- -- 52
2017-08-03 23:00:00 26.8 3 Nordeste 8 Este 0 -- -- 49
2017-08-03 22:00:00 28.1 4 Oeste 10 Sudoeste 0 -- -- 46
2017-08-03 21:00:00 29.5 6 Oeste 15 Sudoeste 0 -- -- 44
2017-08-03 20:00:00 31.5 9 Sudoeste 21 Sudoeste 0 -- -- 38
2017-08-03 19:00:00 32.8 12 Sudoeste 31 Sudoeste 0 -- -- 38
2017-08-03 18:00:00 32.9 17 Sudoeste 36 Sudoeste 0 -- -- 39
2017-08-03 17:00:00 34.9 21 Sudoeste 41 Sudoeste 0 -- -- 34
2017-08-03 16:00:00 35.4 19 Sudoeste 38 Sudoeste 0 -- -- 32
2017-08-03 15:00:00 36.2 19 Sudoeste 32 Sudoeste 0 -- -- 25
2017-08-03 14:00:00 35.4 19 Sudoeste 32 Sudoeste 0 -- -- 29
2017-08-03 13:00:00 34.7 19 Sudoeste 30 Sudoeste 0 -- -- 28
2017-08-03 12:00:00 33.4 9 Sudoeste 19 Sudoeste 0 -- -- 33
2017-08-03 11:00:00 32.7 8 Sudoeste 15 Sudoeste 0 -- -- 35
2017-08-03 10:00:00 29.3 5 Este 16 Este 0 -- -- 39
2017-08-03 09:00:00 24.5 9 Este 17 Este 0 -- -- 53
2017-08-03 08:00:00 22.2 10 Este 15 Nordeste 0 -- -- 61
2017-08-03 07:00:00 22 9 Este 16 Este 0 -- -- 63
2017-08-03 06:00:00 22.3 8 Este 14 Este 0 -- -- 65
2017-08-03 05:00:00 22.7 8 Este 18 Nordeste 0 -- -- 65
2017-08-03 04:00:00 23.3 8 Este 15 Este 0 -- -- 65
2017-08-03 03:00:00 23.6 9 Nordeste 16 Nordeste 0 -- -- 63
2017-08-03 02:00:00 23.3 8 Este 17 Nordeste 0 -- -- 67
2017-08-03 01:00:00 24.3 7 Nordeste 17 Nordeste 0 -- -- 64
2017-08-03 00:00:00 24.6 5 Este 9 Este 0 -- -- 65
2017-08-02 23:00:00 25.5 6 Este 9 Este 0 -- -- 62
2017-08-02 22:00:00 26.6 5 Sudoeste 8 Nordeste 0 -- -- 58
2017-08-02 21:00:00 28.4 3 Este 9 Sur 0 -- -- 52
2017-08-02 20:00:00 29.9 7 Sudoeste 39 Sudoeste 0 -- -- 50
2017-08-02 19:00:00 31.4 21 Sudoeste 39 Sudoeste 0 -- -- 46
2017-08-02 18:00:00 33 17 Sudoeste 41 Sudoeste 0 -- -- 40
2017-08-02 17:00:00 35.1 21 Sudoeste 36 Sudoeste 0 -- -- 35
2017-08-02 16:00:00 35.4 23 Oeste 41 Sudoeste 0 -- -- 28
2017-08-02 15:00:00 33.8 25 Oeste 43 Sudoeste 0 -- -- 29
2017-08-02 14:00:00 34.2 22 Oeste 37 Oeste 0 -- -- 30
2017-08-02 13:00:00 33.3 10 Sudoeste 24 Sudoeste 0 -- -- 33
2017-08-02 12:00:00 31.4 8 Sudoeste 15 Oeste 0 -- -- 41
2017-08-02 11:00:00 29 8 Sudoeste 15 Oeste 0 -- -- 44
2017-08-02 10:00:00 26 4 Este 14 Nordeste 0 -- -- 50
2017-08-02 09:00:00 21.8 10 Este 17 Este 0 -- -- 60
2017-08-02 08:00:00 20.9 9 Este 17 Este 0 -- -- 61
2017-08-02 07:00:00 19.7 8 Este 17 Este 0 -- -- 64
2017-08-02 06:00:00 19.6 9 Este 17 Este 0 -- -- 64
2017-08-02 05:00:00 19.6 10 Este 19 Nordeste 0 -- -- 65
2017-08-02 04:00:00 20.1 9 Este 20 Nordeste 0 -- -- 63
2017-08-02 03:00:00 19.9 10 Este 19 Este 0 -- -- 64
2017-08-02 02:00:00 19 10 Este 16 Este 0 -- -- 69
2017-08-02 01:00:00 20.3 7 Nordeste 17 Este 0 -- -- 65
2017-08-02 00:00:00 20.6 9 Nordeste 20 Este 0 -- -- 65
2017-08-01 23:00:00 21.1 8 Este 15 Este 0 -- -- 67
2017-08-01 22:00:00 22.2 8 Este 14 Este 0 -- -- 62
2017-08-01 21:00:00 23.7 8 Nordeste 13 Nordeste 0 -- -- 57
2017-08-01 20:00:00 24.6 6 Este 14 Este 0 -- -- 63
2017-08-01 19:00:00 24.4 3 Sudeste 10 Este 0 -- -- 61
2017-08-01 18:00:00 23.1 9 Este 19 Este 0.8 -- -- 70
2017-08-01 17:00:00 24.4 8 Nordeste 31 Oeste 0 -- -- 61
2017-08-01 16:00:00 25 24 Oeste 42 Sudoeste 0.2 -- -- 52
2017-08-01 15:00:00 27.1 7 Este 17 Oeste 0 -- -- 52
2017-08-01 14:00:00 28.6 8 Sudoeste 21 Sudoeste 0 -- -- 46
2017-08-01 13:00:00 28.6 11 Sudoeste 23 Sudoeste 0 -- -- 49
2017-08-01 12:00:00 30.6 12 Sudoeste 24 Sudoeste 0 -- -- 40
2017-08-01 11:00:00 29.3 9 Oeste 17 Sudoeste 0 -- -- 39
2017-08-01 10:00:00 26.7 3 Oeste 10 Nordeste 0 -- -- 48
2017-08-01 09:00:00 23.8 7 Este 14 Este 0 -- -- 51
2017-08-01 08:00:00 21.5 6 Nordeste 16 Nordeste 0 -- -- 57
2017-08-01 07:00:00 22.8 14 Nordeste 21 Este 0 -- -- 51
2017-08-01 06:00:00 22.2 13 Nordeste 23 Nordeste 0 -- -- 55
2017-08-01 05:00:00 22.2 11 Nordeste 21 Nordeste 0 -- -- 55
2017-08-01 04:00:00 22.5 7 Este 23 Este 0 -- -- 56
2017-08-01 03:00:00 22.7 7 Este 16 Este 0 -- -- 57
2017-08-01 02:00:00 23.6 7 Este 19 Nordeste 0 -- -- 56
2017-08-01 01:00:00 24.4 9 Nordeste 18 Este 0 -- -- 55
2017-08-01 00:00:00 25.4 8 Este 15 Este 0 -- -- 53
2017-07-31 23:00:00 26.6 5 Este 11 Este 0 -- -- 53
2017-07-31 22:00:00 27.6 2 Oeste 8 Noroeste 0 -- -- 46
2017-07-31 21:00:00 29.5 3 Sudoeste 19 Sudoeste 0 -- -- 41
2017-07-31 20:00:00 31.7 15 Oeste 25 Sudoeste 0 -- -- 35
2017-07-31 19:00:00 33.7 14 Sudoeste 31 Sudoeste 0 -- -- 25
2017-07-31 18:00:00 34.5 17 Sudoeste 31 Sudoeste 0 -- -- 24
2017-07-31 17:00:00 35 16 Sudoeste 31 Sudoeste 0 -- -- 25
2017-07-31 16:00:00 34.8 15 Sudoeste 35 Sudoeste 0 -- -- 26
2017-07-31 15:00:00 35.2 15 Sudoeste 41 Sudoeste 0 -- -- 25
2017-07-31 14:00:00 34.9 15 Sudoeste 35 Sudoeste 0 -- -- 26
2017-07-31 13:00:00 33.6 9 Sudoeste 20 Sur 0 -- -- 27
2017-07-31 12:00:00 32.2 9 Sudoeste 19 Oeste 0 -- -- 32
2017-07-31 11:00:00 30.9 6 Sudoeste 15 Este 0 -- -- 36
2017-07-31 10:00:00 28 9 Este 17 Este 0 -- -- 40
2017-07-31 09:00:00 23.8 6 Este 20 Este 0 -- -- 50
2017-07-31 08:00:00 22 10 Este 21 Nordeste 0 -- -- 53
2017-07-31 07:00:00 23.1 13 Nordeste 23 Sudeste 0 -- -- 50
2017-07-31 06:00:00 23.2 11 Este 29 Este 0 -- -- 50
2017-07-31 05:00:00 22.6 11 Este 27 Este 0 -- -- 55
2017-07-31 04:00:00 23.2 17 Sudeste 23 Sudeste 0 -- -- 52
2017-07-31 03:00:00 22.7 12 Este 24 Este 0 -- -- 57
2017-07-31 02:00:00 22.5 10 Nordeste 21 Nordeste 0 -- -- 62
2017-07-31 01:00:00 23.4 9 Este 18 Nordeste 0 -- -- 61
2017-07-31 00:00:00 24.2 10 Sudeste 16 Sudeste 0 -- -- 57
2017-07-30 23:00:00 24.7 4 Este 8 Nordeste 0 -- -- 57
2017-07-30 22:00:00 26.6 3 Sur 10 Sudoeste 0 -- -- 51
2017-07-30 21:00:00 27.7 8 Oeste 24 Oeste 0 -- -- 49
2017-07-30 20:00:00 30.2 16 Sudoeste 27 Sudoeste 0 -- -- 43
2017-07-30 19:00:00 31.4 9 Sudoeste 26 Sudoeste 0 -- -- 41
2017-07-30 18:00:00 32.2 14 Sudoeste 33 Sudoeste 0 -- -- 39
2017-07-30 17:00:00 33.5 17 Sudoeste 33 Sudoeste 0 -- -- 37
2017-07-30 16:00:00 33.6 14 Sudoeste 33 Sudoeste 0 -- -- 37
2017-07-30 15:00:00 33.1 14 Sudoeste 27 Sudoeste 0 -- -- 34
2017-07-30 14:00:00 32.5 10 Sur 29 Sudoeste 0 -- -- 33
2017-07-30 13:00:00 31.4 10 Sudoeste 20 Sudoeste 0 -- -- 33
2017-07-30 12:00:00 30.5 11 Sudoeste 20 Sudoeste 0 -- -- 35
2017-07-30 11:00:00 28.6 8 Oeste 15 Oeste 0 -- -- 35
2017-07-30 10:00:00 26.3 2 Nordeste 13 Este 0 -- -- 46
2017-07-30 09:00:00 21.8 5 Este 15 Este 0 -- -- 63
2017-07-30 08:00:00 19.8 8 Este 16 Nordeste 0 -- -- 67
2017-07-30 07:00:00 18.7 8 Este 15 Este 0 -- -- 72
2017-07-30 06:00:00 19.5 7 Este 15 Este 0 -- -- 70
2017-07-30 05:00:00 19.5 8 Este 15 Este 0 -- -- 71
2017-07-30 04:00:00 19.5 8 Este 13 Nordeste 0 -- -- 72
2017-07-30 03:00:00 20.3 5 Este 12 Este 0 -- -- 69
2017-07-30 02:00:00 20.3 6 Este 11 Nordeste 0 -- -- 68
2017-07-30 01:00:00 21.6 3 Nordeste 8 Este 0 -- -- 64
2017-07-30 00:00:00 22.7 5 Este 8 Este 0 -- -- 59
2017-07-29 23:00:00 24.2 3 Este 8 Sudoeste 0 -- -- 54
2017-07-29 22:00:00 25.2 6 Sudoeste 9 Sudoeste 0 -- -- 51
2017-07-29 21:00:00 26.9 5 Sudoeste 17 Sur 0 -- -- 46
2017-07-29 20:00:00 29.4 6 Sudoeste 24 Sudoeste 0 -- -- 41
2017-07-29 19:00:00 30.7 12 Sudoeste 32 Sudoeste 0 -- -- 40
2017-07-29 18:00:00 31.6 18 Sudoeste 32 Sudoeste 0 -- -- 41
2017-07-29 17:00:00 31.7 23 Sudoeste 40 Sudoeste 0 -- -- 42
2017-07-29 16:00:00 32.7 18 Sudoeste 35 Oeste 0 -- -- 39
2017-07-29 15:00:00 31.8 11 Sudoeste 28 Sudoeste 0 -- -- 39
2017-07-29 14:00:00 30.6 10 Sur 22 Sudoeste 0 -- -- 39
2017-07-29 13:00:00 29.5 8 Sur 24 Sudoeste 0 -- -- 37
2017-07-29 12:00:00 28.3 9 Sudoeste 19 Sudoeste 0 -- -- 45
2017-07-29 11:00:00 26.5 6 Sur 14 Oeste 0 -- -- 59
2017-07-29 10:00:00 24.4 8 Sudoeste 12 Sudoeste 0 -- -- 66
2017-07-29 09:00:00 20.9 4 Este 13 Este 0 -- -- 77
2017-07-29 08:00:00 18.6 7 Este 12 Este 0 -- -- 86
2017-07-29 07:00:00 18.4 5 Este 9 Este 0 -- -- 86
2017-07-29 06:00:00 18.9 4 Este 11 Este 0 -- -- 84
2017-07-29 05:00:00 19.7 5 Este 19 Nordeste 0 -- -- 81
2017-07-29 04:00:00 19.6 9 Este 14 Este 0 -- -- 83
2017-07-29 03:00:00 20 6 Este 12 Este 0 -- -- 81
2017-07-29 02:00:00 20.4 4 Este 8 Este 0 -- -- 79
2017-07-29 01:00:00 21.7 0 Calma 6 Nordeste 0 -- -- 73
2017-07-29 00:00:00 22.6 3 Este 6 Este 0 -- -- 70
2017-07-28 23:00:00 23.1 3 Este 12 Sudoeste 0 -- -- 68
2017-07-28 22:00:00 23.8 8 Oeste 17 Oeste 0 -- -- 66
2017-07-28 21:00:00 25.9 12 Sudoeste 21 Sudoeste 0 -- -- 59
2017-07-28 20:00:00 28.6 15 Sudoeste 26 Oeste 0 -- -- 52
2017-07-28 19:00:00 30.1 20 Sudoeste 31 Sudoeste 0 -- -- 47
2017-07-28 18:00:00 30.3 18 Sudoeste 32 Sudoeste 0 -- -- 45
2017-07-28 17:00:00 30.3 12 Sudoeste 35 Sudoeste 0 -- -- 46
2017-07-28 16:00:00 32.1 17 Sudoeste 31 Sudoeste 0 -- -- 42
2017-07-28 15:00:00 30.9 15 Sudoeste 34 Sudoeste 0 -- -- 46
2017-07-28 14:00:00 29.5 18 Sudoeste 32 Sudoeste 0 -- -- 50
2017-07-28 13:00:00 28.7 14 Sudoeste 25 Sudoeste 0 -- -- 52
2017-07-28 12:00:00 27.5 9 Sur 22 Sudoeste 0 -- -- 50
2017-07-28 11:00:00 26.3 8 Sudoeste 17 Sudoeste 0 -- -- 52
2017-07-28 10:00:00 24.6 10 Sudoeste 18 Sudoeste 0 -- -- 61
2017-07-28 09:00:00 21.5 2 Este 9 Este 0 -- -- 74
2017-07-28 08:00:00 19.6 5 Este 13 Este 0 -- -- 80
2017-07-28 07:00:00 19.2 7 Este 14 Este 0 -- -- 81
2017-07-28 06:00:00 19.6 8 Este 14 Este 0 -- -- 80
2017-07-28 05:00:00 19.7 7 Este 12 Este 0 -- -- 80
2017-07-28 04:00:00 20.5 6 Este 17 Nordeste 0 -- -- 77
2017-07-28 03:00:00 21.5 8 Nordeste 13 Nordeste 0 -- -- 74
2017-07-28 02:00:00 22.1 5 Nordeste 10 Este 0 -- -- 73
2017-07-28 01:00:00 23 5 Nordeste 8 Nordeste 0 -- -- 70
2017-07-28 00:00:00 24.4 4 Sudoeste 6 Sudoeste 0 -- -- 65
2017-07-27 23:00:00 24.9 2 Este 6 Este 0 -- -- 63
2017-07-27 22:00:00 25.5 2 Oeste 9 Oeste 0 -- -- 59
2017-07-27 21:00:00 26.5 7 Oeste 18 Oeste 0 -- -- 56
2017-07-27 20:00:00 29 12 Sudoeste 30 Sudoeste 0 -- -- 47
2017-07-27 19:00:00 32 18 Sudoeste 31 Sudoeste 0 -- -- 29
2017-07-27 18:00:00 32.3 24 Sudoeste 41 Sudoeste 0 -- -- 29
2017-07-27 17:00:00 32.5 21 Sudoeste 40 Oeste 0 -- -- 29
2017-07-27 16:00:00 32.4 21 Sudoeste 39 Sudoeste 0 -- -- 30
2017-07-27 15:00:00 32 15 Sudoeste 31 Oeste 0 -- -- 30
2017-07-27 14:00:00 30.7 18 Oeste 40 Oeste 0 -- -- 32
2017-07-27 13:00:00 28.4 8 Sudoeste 20 Sudoeste 0 -- -- 43
2017-07-27 12:00:00 26.5 5 Sudoeste 18 Oeste 0 -- -- 51
2017-07-27 11:00:00 24.5 6 Oeste 13 Sudoeste 0 -- -- 57
2017-07-27 10:00:00 22.2 3 Sur 10 Sudoeste 0 -- -- 65
2017-07-27 09:00:00 18.4 4 Este 11 Este 0 -- -- 75
2017-07-27 08:00:00 16.2 5 Este 11 Este 0 -- -- 83
2017-07-27 07:00:00 15.3 6 Este 12 Este 0 -- -- 86
2017-07-27 06:00:00 15.4 6 Este 10 Este 0 -- -- 87
2017-07-27 05:00:00 16.1 5 Este 8 Este 0 -- -- 85
2017-07-27 04:00:00 16.4 5 Este 8 Este 0 -- -- 86
2017-07-27 03:00:00 17.2 4 Este 7 Este 0 -- -- 83
2017-07-27 02:00:00 18.1 0 Calma 6 Este 0 -- -- 80
2017-07-27 01:00:00 18.8 2 Sur 7 Sudoeste 0 -- -- 77
2017-07-27 00:00:00 19.5 5 Sudoeste 9 Sudoeste 0 -- -- 75
2017-07-26 23:00:00 20.3 6 Sudoeste 9 Sudoeste 0 -- -- 73
2017-07-26 22:00:00 21.7 4 Oeste 15 Oeste 0 -- -- 65
2017-07-26 21:00:00 23.5 7 Sudoeste 26 Sudoeste 0 -- -- 59
2017-07-26 20:00:00 26.6 16 Sudoeste 31 Oeste 0 -- -- 42
2017-07-26 19:00:00 27.4 19 Oeste 33 Oeste 0 -- -- 38
2017-07-26 18:00:00 27.6 20 Oeste 30 Sudoeste 0 -- -- 36
2017-07-26 17:00:00 27.7 14 Sudoeste 29 Sudoeste 0 -- -- 35
2017-07-26 16:00:00 27.5 14 Oeste 30 Oeste 0 -- -- 34
2017-07-26 15:00:00 26.8 14 Sudoeste 26 Sudoeste 0 -- -- 34
2017-07-26 14:00:00 26.1 14 Sudoeste 27 Sudoeste 0 -- -- 40
2017-07-26 13:00:00 24.3 11 Sudoeste 24 Sudoeste 0 -- -- 50
2017-07-26 12:00:00 22.4 10 Sudoeste 21 Sudoeste 0 -- -- 57
2017-07-26 11:00:00 20.1 5 Oeste 10 Sur 0 -- -- 65
2017-07-26 10:00:00 17.4 5 Sudoeste 10 Oeste 0 -- -- 73
2017-07-26 09:00:00 15.5 7 Sudoeste 10 Oeste 0 -- -- 81
2017-07-26 08:00:00 13.9 3 Sudoeste 5 Oeste 0 -- -- 83
2017-07-26 07:00:00 13.9 0 Calma 7 Sudoeste 0 -- -- 83
2017-07-26 06:00:00 15.2 3 Sudoeste 6 Sudoeste 0 -- -- 81
2017-07-26 05:00:00 16.2 3 Sudoeste 7 Sur 0 -- -- 76
2017-07-26 04:00:00 17.2 3 Este 9 Sur 0 -- -- 79
2017-07-26 03:00:00 18.1 4 Este 11 Este 0 -- -- 87
2017-07-26 02:00:00 18.7 2 Sudoeste 6 Sudoeste 0 -- -- 86
2017-07-26 01:00:00 18.9 3 Sur 8 Sur 0 -- -- 82
2017-07-26 00:00:00 19.4 5 Sudoeste 8 Sudoeste 0 -- -- 78
2017-07-25 23:00:00 19.8 5 Oeste 8 Sudoeste 0 -- -- 77
2017-07-25 22:00:00 20.7 4 Este 11 Sudoeste 0 -- -- 71
2017-07-25 21:00:00 22 5 Nordeste 23 Sudoeste 0 -- -- 64
2017-07-25 20:00:00 24.8 17 Sudoeste 32 Sudoeste 0 -- -- 50
2017-07-25 19:00:00 25.4 19 Oeste 31 Sudoeste 0 -- -- 38
2017-07-25 18:00:00 26.1 18 Oeste 36 Sudoeste 0 -- -- 37
2017-07-25 17:00:00 26.5 17 Sudoeste 31 Sudoeste 0 -- -- 36
2017-07-25 16:00:00 25.9 17 Sudoeste 29 Oeste 0 -- -- 37
2017-07-25 15:00:00 25.9 19 Sudoeste 32 Oeste 0 -- -- 38
2017-07-25 14:00:00 24.6 10 Sudoeste 29 Sudoeste 0 -- -- 40
2017-07-25 13:00:00 25 12 Sudoeste 24 Sudoeste 0 -- -- 43
2017-07-25 12:00:00 23.4 9 Oeste 19 Sudoeste 0 -- -- 52
2017-07-25 11:00:00 21.3 6 Oeste 14 Oeste 0 -- -- 59
2017-07-25 10:00:00 19.1 6 Sudoeste 14 Oeste 0 -- -- 66
2017-07-25 09:00:00 16.1 7 Sudoeste 13 Sudoeste 0 -- -- 73
2017-07-25 08:00:00 14.4 4 Este 8 Este 0 -- -- 76
2017-07-25 07:00:00 14 3 Nordeste 8 Sudoeste 0 -- -- 74
2017-07-25 06:00:00 14.9 3 Este 10 Este 0 -- -- 75
2017-07-25 05:00:00 15.8 4 Este 7 Este 0 -- -- 79
2017-07-25 04:00:00 16.8 3 Este 8 Sur 0 -- -- 80
2017-07-25 03:00:00 18 4 Sur 8 Sur 0 -- -- 75
2017-07-25 02:00:00 19.3 6 Sudoeste 13 Oeste 0 -- -- 83
2017-07-25 01:00:00 20.1 4 Sudoeste 10 Sudoeste 0 -- -- 79
2017-07-25 00:00:00 20.9 4 Sudoeste 12 Este 0 -- -- 76
2017-07-24 23:00:00 21.7 4 Este 11 Sudeste 0 -- -- 71
2017-07-24 22:00:00 22.8 8 Este 17 Este 0 -- -- 68
2017-07-24 21:00:00 24.9 7 Sur 27 Oeste 0 -- -- 58
2017-07-24 20:00:00 27.4 17 Oeste 36 Sudoeste 0 -- -- 39
2017-07-24 19:00:00 28.3 24 Oeste 45 Oeste 0 -- -- 38
2017-07-24 18:00:00 28.9 27 Oeste 45 Oeste 0 -- -- 35
2017-07-24 17:00:00 28.9 11 Sudoeste 24 Sudoeste 0 -- -- 39
2017-07-24 16:00:00 29 14 Oeste 29 Sudoeste 0 -- -- 41
2017-07-24 15:00:00 28.3 14 Oeste 23 Sudoeste 0 -- -- 44
2017-07-24 14:00:00 26.2 12 Oeste 23 Oeste 0 -- -- 49
2017-07-24 13:00:00 26.2 8 Sur 18 Oeste 0 -- -- 50
2017-07-24 12:00:00 24.9 7 Noroeste 15 Sudoeste 0 -- -- 57
2017-07-24 11:00:00 23.4 6 Noroeste 13 Sudoeste 0 -- -- 65
2017-07-24 10:00:00 20.5 3 Oeste 12 Oeste 0 -- -- 74
2017-07-24 09:00:00 17.7 4 Oeste 8 Sudoeste 0 -- -- 86
2017-07-24 08:00:00 16.1 3 Este 8 Este 0 -- -- 91
2017-07-24 07:00:00 15.5 5 Este 8 Nordeste 0 -- -- 91
2017-07-24 06:00:00 15.9 4 Este 9 Este 0 -- -- 90
2017-07-24 05:00:00 16.4 3 Este 8 Este 0 -- -- 89
2017-07-24 04:00:00 17 4 Este 6 Este 0 -- -- 87
2017-07-24 03:00:00 17.6 2 Nordeste 6 Este 0 -- -- 83
2017-07-24 02:00:00 18 4 Este 8 Este 0 -- -- 83
2017-07-24 01:00:00 18.8 4 Sudoeste 9 Oeste 0 -- -- 78
2017-07-24 00:00:00 19.4 2 Este 9 Este 0 -- -- 76
2017-07-23 23:00:00 20 6 Nordeste 15 Nordeste 0 -- -- 74
2017-07-23 22:00:00 20.9 8 Nordeste 19 Nordeste 0 -- -- 72
2017-07-23 21:00:00 20.8 2 Sudoeste 26 Sudoeste 0 -- -- 81
2017-07-23 20:00:00 21.8 18 Sudoeste 39 Sudoeste 0 -- -- 77
2017-07-23 19:00:00 24.2 22 Sudoeste 37 Sudoeste 0 -- -- 65
2017-07-23 18:00:00 26.9 22 Sudoeste 36 Sudoeste 0 -- -- 57
2017-07-23 17:00:00 28.3 14 Sudoeste 36 Oeste 0 -- -- 54
2017-07-23 16:00:00 29.8 19 Sudoeste 35 Sudoeste 0 -- -- 44
2017-07-23 15:00:00 28.5 18 Sudoeste 35 Oeste 0 -- -- 53
2017-07-23 14:00:00 27.5 20 Sudoeste 32 Sudoeste 0 -- -- 57
2017-07-23 13:00:00 26.5 18 Sudoeste 29 Sudoeste 0 -- -- 61
2017-07-23 12:00:00 25.1 14 Sudoeste 26 Sudoeste 0 -- -- 64
2017-07-23 11:00:00 23.9 8 Sudoeste 16 Oeste 0 -- -- 70
2017-07-23 10:00:00 23.1 4 Este 11 Sudeste 0 -- -- 76
2017-07-23 09:00:00 20.6 3 Oeste 6 Este 0 -- -- 85
2017-07-23 08:00:00 19.6 3 Este 5 Este 0 -- -- 87
2017-07-23 07:00:00 19.2 2 Este 9 Este 0 -- -- 89
2017-07-23 06:00:00 19.2 0 Calma 6 Sudoeste 0 -- -- 88
2017-07-23 05:00:00 18.9 3 Sudeste 13 Nordeste 0 -- -- 88
2017-07-23 04:00:00 19.2 8 Nordeste 13 Nordeste 0 -- -- 87
2017-07-23 03:00:00 19.6 4 Este 7 Este 0 -- -- 87
2017-07-23 02:00:00 20.1 5 Este 7 Este 0 -- -- 86
2017-07-23 01:00:00 21.1 2 Este 5 Este 0 -- -- 82
2017-07-23 00:00:00 21.8 3 Este 6 Nordeste 0 -- -- 79
2017-07-22 23:00:00 22.7 3 Sur 9 Sudoeste 0 -- -- 76
2017-07-22 22:00:00 23.4 6 Oeste 14 Oeste 0 -- -- 73
2017-07-22 21:00:00 25.7 8 Sudoeste 18 Oeste 0 -- -- 64
2017-07-22 20:00:00 27.1 9 Oeste 33 Oeste 0 -- -- 59
2017-07-22 19:00:00 28.5 16 Sudoeste 31 Sudoeste 0 -- -- 53
2017-07-22 18:00:00 27.4 9 Sudoeste 30 Sudoeste 0 -- -- 56
2017-07-22 17:00:00 28 18 Sudoeste 31 Sudoeste 0 -- -- 57
2017-07-22 16:00:00 28.4 17 Sudoeste 32 Sudoeste 0 -- -- 52
2017-07-22 15:00:00 28.8 17 Sudoeste 31 Sudoeste 0 -- -- 49
2017-07-22 14:00:00 27.8 11 Sur 24 Sudoeste 0 -- -- 47
2017-07-22 13:00:00 27.6 10 Sudoeste 22 Sudoeste 0 -- -- 53
2017-07-22 12:00:00 25.9 7 Sudoeste 15 Oeste 0 -- -- 59
2017-07-22 11:00:00 24.9 6 Oeste 14 Sudoeste 0 -- -- 66
2017-07-22 10:00:00 22.6 6 Sudoeste 12 Oeste 0 -- -- 72
2017-07-22 09:00:00 19.2 6 Este 14 Este 0 -- -- 78
2017-07-22 08:00:00 16.9 7 Este 14 Nordeste 0 -- -- 85
2017-07-22 07:00:00 16.4 8 Este 16 Este 0 -- -- 86
2017-07-22 06:00:00 16.8 7 Este 18 Nordeste 0 -- -- 85
2017-07-22 05:00:00 17.5 12 Nordeste 20 Nordeste 0 -- -- 82
2017-07-22 04:00:00 17.4 8 Nordeste 21 Nordeste 0 -- -- 85
2017-07-22 03:00:00 17.5 6 Este 15 Nordeste 0 -- -- 86
2017-07-22 02:00:00 18.1 7 Este 14 Nordeste 0 -- -- 84
2017-07-22 01:00:00 18.7 6 Este 14 Este 0 -- -- 81
2017-07-22 00:00:00 19 5 Este 11 Este 0 -- -- 81
2017-07-21 23:00:00 19.6 5 Este 9 Este 0 -- -- 79
2017-07-21 22:00:00 20.9 5 Este 9 Este 0 -- -- 71
2017-07-21 21:00:00 22 5 Sudoeste 10 Sudoeste 0 -- -- 66
2017-07-21 20:00:00 23.1 6 Sudoeste 19 Sudoeste 0 -- -- 62
2017-07-21 19:00:00 24.4 9 Sudoeste 19 Sudoeste 0 -- -- 57
2017-07-21 18:00:00 24.2 9 Sudoeste 19 Sudoeste 0 -- -- 60
2017-07-21 17:00:00 24.1 10 Sudoeste 21 Sudoeste 0 -- -- 65
2017-07-21 16:00:00 23.9 8 Sudoeste 19 Sudoeste 0 -- -- 63
2017-07-21 15:00:00 22.5 6 Sur 14 Sudoeste 0 -- -- 73
2017-07-21 14:00:00 21.1 7 Sudoeste 16 Sudoeste 0 -- -- 77
2017-07-21 13:00:00 19.7 6 Este 31 Nordeste 0 -- -- 79
2017-07-21 12:00:00 18.8 16 Nordeste 31 Nordeste 0.4 -- -- 82
2017-07-21 11:00:00 18.1 6 Este 15 Este 4.8 -- -- 91
2017-07-21 10:00:00 19.6 0 Calma 11 Este 0 -- -- 78
2017-07-21 09:00:00 18.9 6 Este 12 Nordeste 0 -- -- 80
2017-07-21 08:00:00 17.3 7 Este 16 Este 0 -- -- 84
2017-07-21 07:00:00 16.7 8 Este 16 Este 0 -- -- 87
2017-07-21 06:00:00 16.8 8 Este 15 Este 0 -- -- 87
2017-07-21 05:00:00 16.8 7 Este 16 Nordeste 0 -- -- 89
2017-07-21 04:00:00 16.9 7 Este 12 Este 0 -- -- 89
2017-07-21 03:00:00 17 6 Este 12 Este 0 -- -- 89
2017-07-21 02:00:00 17.6 9 Nordeste 19 Este 0 -- -- 87
2017-07-21 01:00:00 18.2 8 Nordeste 17 Este 0 -- -- 85
2017-07-21 00:00:00 18.5 6 Nordeste 20 Sudeste 0 -- -- 88
2017-07-20 23:00:00 18.3 6 Este 14 Sudeste 0 -- -- 89
2017-07-20 22:00:00 18.6 4 Este 19 Nordeste 0.2 -- -- 89
2017-07-20 21:00:00 18.3 8 Nordeste 38 Nordeste 2.8 -- -- 86
2017-07-20 20:00:00 20.2 14 Nordeste 33 Este 7 -- -- 72
2017-07-20 19:00:00 22.5 10 Nordeste 33 Nordeste 0 -- -- 69
2017-07-20 18:00:00 26.2 13 Este 36 Sudoeste 0 -- -- 56
2017-07-20 17:00:00 28.4 13 Sudoeste 27 Sudoeste 0 -- -- 46
2017-07-20 16:00:00 30.7 14 Sudoeste 26 Oeste 0 -- -- 40
2017-07-20 15:00:00 30.1 12 Sudoeste 29 Sudoeste 0 -- -- 41
2017-07-20 14:00:00 29 12 Sudoeste 28 Oeste 0 -- -- 46
2017-07-20 13:00:00 28.6 12 Sudoeste 29 Sudoeste 0 -- -- 46
2017-07-20 12:00:00 27.5 9 Oeste 22 Sudoeste 0 -- -- 48
2017-07-20 11:00:00 26.4 5 Nordeste 15 Este 0 -- -- 50
2017-07-20 10:00:00 24.2 5 Nordeste 15 Sudeste 0 -- -- 56
2017-07-20 09:00:00 20.8 3 Este 17 Sudeste 0 -- -- 65
2017-07-20 08:00:00 19.3 7 Este 20 Norte 0 -- -- 70
2017-07-20 07:00:00 18.7 8 Este 17 Nordeste 0 -- -- 70
2017-07-20 06:00:00 18.8 8 Nordeste 22 Este 0 -- -- 71
2017-07-20 05:00:00 19.1 8 Este 27 Este 0 -- -- 72
2017-07-20 04:00:00 19.1 9 Este 20 Este 0 -- -- 74
2017-07-20 03:00:00 20.2 6 Este 17 Norte 0 -- -- 67
2017-07-20 02:00:00 20.7 4 Este 9 Nordeste 0 -- -- 59
2017-07-20 01:00:00 21.4 3 Este 7 Este 0 -- -- 57
2017-07-20 00:00:00 21.9 5 Este 9 Sudoeste 0 -- -- 55
2017-07-19 23:00:00 23.3 5 Sudoeste 8 Oeste 0 -- -- 48
2017-07-19 22:00:00 24.6 6 Sudoeste 9 Sudoeste 0 -- -- 46
2017-07-19 21:00:00 25.9 4 Sudoeste 12 Sudoeste 0 -- -- 42
2017-07-19 20:00:00 27.5 9 Sudoeste 23 Sudoeste 0 -- -- 40
2017-07-19 19:00:00 28.3 9 Sudoeste 26 Sudoeste 0 -- -- 38
2017-07-19 18:00:00 29.8 17 Sudoeste 32 Sudoeste 0 -- -- 35
2017-07-19 17:00:00 30.2 21 Sudoeste 38 Sudoeste 0 -- -- 35
2017-07-19 16:00:00 31.2 18 Sudoeste 33 Sudoeste 0 -- -- 34
2017-07-19 15:00:00 32.5 18 Sudoeste 33 Sudoeste 0 -- -- 27
2017-07-19 14:00:00 32.1 12 Sudoeste 28 Oeste 0 -- -- 24
2017-07-19 13:00:00 30.7 9 Oeste 18 Oeste 0 -- -- 32
2017-07-19 12:00:00 28.4 6 Oeste 12 Sur 0 -- -- 39
2017-07-19 11:00:00 26.4 9 Sudoeste 15 Sudoeste 0 -- -- 42
2017-07-19 10:00:00 23.1 6 Sudoeste 23 Nordeste 0 -- -- 49
2017-07-19 09:00:00 21.6 15 Nordeste 25 Nordeste 0 -- -- 55
2017-07-19 08:00:00 19.1 7 Este 12 Este 0 -- -- 75
2017-07-19 07:00:00 19.6 2 Nordeste 13 Este 0 -- -- 69
2017-07-19 06:00:00 20.4 5 Este 15 Sudeste 0 -- -- 65
2017-07-19 05:00:00 19.7 8 Nordeste 16 Este 0 -- -- 74
2017-07-19 04:00:00 19.9 3 Norte 20 Sudoeste 0 -- -- 75
2017-07-19 03:00:00 20.9 15 Oeste 37 Nordeste 0 -- -- 66
2017-07-19 02:00:00 21.3 14 Nordeste 22 Nordeste 0 -- -- 65
2017-07-19 01:00:00 21.4 3 Oeste 12 Sudoeste 0 -- -- 66
2017-07-19 00:00:00 21.9 12 Oeste 22 Sudoeste 0 -- -- 62